Terminal Aerodrome Forecast
Issued by NWS

Home | Current Version | Previous Version | Text Only | Print | Product List | Glossary On
Versions: 1 2 3 4 5 6 7 8 9 10 11 12 13
000
FTUS44 KHGX 190524
TAFCXO
TAF
KCXO 190524Z 1906/2006 VRB01KT P6SM FEW050 FEW250
     FM191000 VRB01KT 3SM BR SCT250
      TEMPO 1911/1913 00000KT 1SM BR
     FM191500 14004KT P6SM SCT035 BKN250=

USA.gov is the U.S. government's official web portal to all federal, state and local government web resources and services.